Mesquite, New Mexico
Current Conditions -  °F | °C
As of 6:15 AM on Saturday 25 Oct 2014 (Local Time) from KLRU Reporting Station
Clear Clear  
Wind Chill: 54°   Ceiling: Unl
Heat Index: 54°   Visibility: 10mi
Dew Point: 45°   Wind: 3mph
Humidity: 70%   Direction: 90°E
Pressure: 30.24"   Gusts: NA
Location:  32.17°N, 106.7°W
Report Text: KLRU 251215Z AUTO 09003KT 10SM CLR 12/07 A3024 RMK AO2 T01230070 PWINO
Loading
Personal Weather Stations






























Interactive Weather Map
Tropical Storm Tracking
New forecast layout! Learn more

10-Day Weather Forecast

Advertisements
Track Severe Weather on mobile